Main page
METAR-TAF:

METAR-TAF

Airports :

Sonora Municipal Airport

Sonora, Texas, United States

latitude: 30-35-08N, longitude: 100-38-54W, elevation: 2139 ft

Current weather observation

The report was made 15 minutes ago, at 09:15 UTC
Calm wind
Temperature 77°F
Humidity 79%
Pressure 30.14 in. Hg
Visibility: 10 miles
Clear sky

METAR: KSOA 170915Z AUTO 00000KT 10SM CLR 25/21 A3014 RMK AO2

Time: 04:30 (09:30 UTC)

Forecast

The report was made 4 hours and 10 minutes ago, at 05:20 UTC
Forecast valid from 17 at 06 UTC to 18 at 06 UTC
Wind 7 mph from the South
Visibility: 6 miles
Few clouds at a height of 25000 ft
From 17 at 1500 UTC
Wind 10 mph from the South
Visibility: 6 miles
Scattered clouds at a height of 25000 ft

TAF: KSOA 170520Z 1706/1806 17006KT P6SM FEW250 FM171500 17009KT P6SM SCT250

Weather observations and forecasts of more than 4000 airports (METAR and TAF reports).

The available stations are represented by yellow and red dots on the map.

Hover mouse over dot to see the name of the station.

Then click to see weather observations and forecasts.

To change the map : click on the green buttons with a black cross to zoom in, on the green button with a dash to zoom out, or on the green arrows for adjacent maps.


METAR-TAF: